Time;durP1;ratioP1;P1;durP2;ratioP2;P2;SDS_P1;SDS_P2;PMS_P1;PMS_P2;Temp;Humidity;BMP_temperature;BMP_pressure;BME280_temperature;BME280_humidity;BME280_pressure;Samples;Min_cycle;Max_cycle;Signal;HPM_P1;HPM_P2
2022/10/20 00:01:10;;;;;;;13.50;8.40;;;14.90;99.90;;;;;;5051655;28;20591;-31
2022/10/20 00:03:40;;;;;;;13.60;8.20;;;14.80;99.90;;;;;;5051185;28;20200;-32
2022/10/20 00:06:11;;;;;;;11.53;8.77;;;14.80;99.90;;;;;;5050637;28;20291;-31
2022/10/20 00:08:42;;;;;;;10.87;7.80;;;14.80;99.90;;;;;;5050877;28;20210;-32
2022/10/20 00:11:11;;;;;;;13.97;8.50;;;14.80;99.90;;;;;;5050897;28;20514;-32
2022/10/20 00:13:40;;;;;;;13.80;8.77;;;14.80;99.90;;;;;;5050440;28;20243;-31
2022/10/20 00:16:10;;;;;;;11.20;8.20;;;14.80;99.90;;;;;;5050748;28;20235;-33
2022/10/20 00:18:38;;;;;;;14.67;8.87;;;14.80;99.90;;;;;;5050888;28;20244;-33
2022/10/20 00:21:19;;;;;;;11.63;8.70;;;14.70;99.90;;;;;;5050192;28;20207;-31
2022/10/20 00:23:46;;;;;;;15.93;9.40;;;14.70;99.90;;;;;;5050206;28;20238;-31
2022/10/20 00:26:17;;;;;;;17.43;9.53;;;14.70;99.90;;;;;;5048825;28;20227;-31
2022/10/20 00:28:45;;;;;;;15.00;9.70;;;14.70;99.90;;;;;;5050265;28;20194;-31
2022/10/20 00:31:13;;;;;;;12.93;9.03;;;14.70;99.90;;;;;;5048675;28;20579;-31
2022/10/20 00:33:40;;;;;;;15.43;9.27;;;14.70;99.90;;;;;;5050086;28;20335;-32
2022/10/20 00:36:11;;;;;;;13.13;9.17;;;14.70;99.90;;;;;;5050151;28;20193;-33
2022/10/20 00:38:39;;;;;;;16.70;9.90;;;14.70;99.90;;;;;;5050064;28;20626;-33
2022/10/20 00:41:07;;;;;;;13.87;9.20;;;14.70;99.90;;;;;;5050223;28;20212;-31
2022/10/20 00:43:56;;;;;;;12.17;8.73;;;14.70;99.90;;;;;;5049905;28;20281;-31
2022/10/20 00:46:29;;;;;;;12.10;9.17;;;14.70;99.90;;;;;;5050176;28;20200;-33
2022/10/20 00:49:00;;;;;;;13.40;9.13;;;14.60;99.90;;;;;;5050713;28;20199;-32
2022/10/20 00:51:29;;;;;;;12.90;8.53;;;14.60;99.90;;;;;;5050109;28;20215;-33
2022/10/20 00:54:10;;;;;;;11.47;8.70;;;14.60;99.90;;;;;;5048175;28;20189;-32
2022/10/20 00:56:42;;;;;;;11.17;8.97;;;14.60;99.90;;;;;;5048468;28;20263;-32
2022/10/20 00:59:13;;;;;;;10.40;8.47;;;14.60;99.90;;;;;;5060667;28;20207;-31
2022/10/20 01:01:42;;;;;;;12.80;9.47;;;14.60;99.90;;;;;;5065666;28;20257;-32
2022/10/20 01:04:12;;;;;;;12.93;9.67;;;14.60;99.90;;;;;;5047843;28;20729;-32
2022/10/20 01:06:39;;;;;;;11.83;9.70;;;14.50;99.90;;;;;;5049151;28;20318;-32
2022/10/20 01:09:07;;;;;;;15.53;10.40;;;14.50;99.90;;;;;;5049508;28;20223;-32
2022/10/20 01:12:00;;;;;;;14.13;9.83;;;14.50;99.90;;;;;;5048546;28;20248;-31
2022/10/20 01:14:50;;;;;;;15.53;10.07;;;14.50;99.90;;;;;;5047900;28;20192;-32
2022/10/20 01:17:29;;;;;;;13.83;10.03;;;14.50;99.90;;;;;;5049027;28;20210;-32
2022/10/20 01:20:15;;;;;;;15.93;10.37;;;14.50;99.90;;;;;;5049011;28;20193;-32
2022/10/20 01:23:20;;;;;;;15.87;11.07;;;14.50;99.90;;;;;;5049504;28;20200;-32
2022/10/20 01:26:12;;;;;;;16.00;10.50;;;14.50;99.90;;;;;;5049051;28;20706;-31
2022/10/20 01:28:54;;;;;;;14.33;9.97;;;14.50;99.90;;;;;;5049039;28;20204;-31
2022/10/20 01:31:30;;;;;;;12.13;9.00;;;14.50;99.90;;;;;;5048992;28;20484;-32
2022/10/20 01:34:11;;;;;;;10.90;9.07;;;14.50;99.90;;;;;;5049453;28;20207;-32
2022/10/20 01:36:46;;;;;;;10.90;8.40;;;14.50;99.90;;;;;;5049284;28;20196;-31
2022/10/20 01:40:04;;;;;;;14.27;9.83;;;14.50;99.90;;;;;;5064179;28;20382;-33
2022/10/20 01:42:32;;;;;;;10.93;9.23;;;14.50;99.90;;;;;;5047593;28;20208;-31
2022/10/20 01:45:05;;;;;;;11.00;9.07;;;14.40;99.90;;;;;;5048789;28;20213;-31
2022/10/20 01:47:34;;;;;;;13.33;9.10;;;14.40;99.90;;;;;;5048759;28;20311;-31
2022/10/20 01:50:07;;;;;;;11.37;8.20;;;14.40;99.90;;;;;;5048661;28;20251;-31
2022/10/20 01:52:36;;;;;;;14.67;10.13;;;14.40;99.90;;;;;;5047338;28;20236;-32
2022/10/20 01:55:16;;;;;;;11.63;9.33;;;14.40;99.90;;;;;;5063684;28;20193;-32
2022/10/20 01:58:10;;;;;;;17.03;10.03;;;14.40;99.90;;;;;;5048548;28;20226;-31
2022/10/20 02:00:42;;;;;;;12.57;10.20;;;14.40;99.90;;;;;;5047031;28;20308;-31
2022/10/20 02:03:30;;;;;;;13.70;10.27;;;14.40;99.90;;;;;;5048684;28;20262;-31
2022/10/20 02:06:24;;;;;;;10.63;9.53;;;14.40;99.90;;;;;;5063499;28;20299;-31
2022/10/20 02:08:56;;;;;;;14.77;9.43;;;14.40;99.90;;;;;;5048620;28;20200;-33
2022/10/20 02:11:53;;;;;;;14.13;9.70;;;14.40;99.90;;;;;;5063363;28;20184;-34
2022/10/20 02:14:22;;;;;;;13.53;9.63;;;14.40;99.90;;;;;;5048047;28;20243;-31
2022/10/20 02:16:58;;;;;;;12.37;9.27;;;14.40;99.90;;;;;;5048040;28;20196;-32
2022/10/20 02:19:29;;;;;;;14.93;9.77;;;14.40;99.90;;;;;;5046553;28;20235;-32
2022/10/20 02:22:00;;;;;;;13.23;9.40;;;14.40;99.90;;;;;;5048136;28;20532;-31
2022/10/20 02:24:32;;;;;;;13.03;10.07;;;14.40;99.90;;;;;;5047317;28;20516;-31
2022/10/20 02:27:04;;;;;;;11.23;9.40;;;14.40;99.90;;;;;;5047828;28;20228;-31
2022/10/20 02:29:52;;;;;;;12.30;9.67;;;14.40;99.90;;;;;;5048113;28;20247;-31
2022/10/20 02:32:21;;;;;;;13.27;9.90;;;14.40;99.90;;;;;;5047975;28;20704;-31
2022/10/20 02:34:48;;;;;;;12.00;9.57;;;14.40;99.90;;;;;;5047950;28;20208;-32
2022/10/20 02:37:18;;;;;;;10.60;8.87;;;14.40;99.90;;;;;;5047954;28;20227;-31
2022/10/20 02:39:45;;;;;;;13.47;8.70;;;14.40;99.90;;;;;;5047816;28;20240;-32
2022/10/20 02:42:13;;;;;;;12.90;8.77;;;14.40;99.90;;;;;;5047800;28;20238;-32
2022/10/20 02:44:40;;;;;;;11.67;9.03;;;14.40;99.90;;;;;;5047777;28;20748;-33
2022/10/20 02:47:07;;;;;;;10.97;9.13;;;14.40;99.90;;;;;;5047492;28;20207;-33
2022/10/20 02:49:34;;;;;;;11.53;9.10;;;14.40;99.90;;;;;;5047737;28;20204;-33
2022/10/20 02:52:02;;;;;;;11.90;8.87;;;14.40;99.90;;;;;;5047688;28;20261;-31
2022/10/20 02:54:29;;;;;;;13.37;9.90;;;14.40;99.90;;;;;;5047902;28;20219;-33
2022/10/20 02:56:56;;;;;;;12.00;9.47;;;14.40;99.90;;;;;;5048011;28;20544;-33
2022/10/20 02:59:26;;;;;;;12.07;8.73;;;14.40;99.90;;;;;;5047879;28;20204;-33
2022/10/20 03:01:53;;;;;;;14.43;9.33;;;14.40;99.90;;;;;;5047523;28;20679;-33
2022/10/20 03:04:20;;;;;;;11.63;9.00;;;14.50;99.90;;;;;;5046245;28;20733;-33
2022/10/20 03:06:48;;;;;;;12.03;8.90;;;14.50;99.90;;;;;;5047782;28;20294;-33
2022/10/20 03:09:15;;;;;;;11.10;8.70;;;14.50;99.90;;;;;;5048031;28;20227;-33
2022/10/20 03:11:42;;;;;;;11.87;9.00;;;14.50;99.90;;;;;;5047542;28;20200;-33
2022/10/20 03:14:10;;;;;;;10.27;8.70;;;14.50;99.90;;;;;;5047630;28;20204;-33
2022/10/20 03:16:38;;;;;;;14.07;9.07;;;14.50;99.90;;;;;;5047709;28;20189;-33
2022/10/20 03:19:05;;;;;;;12.17;8.40;;;14.50;99.90;;;;;;5047668;28;20250;-33
2022/10/20 03:21:37;;;;;;;12.17;8.83;;;14.50;99.90;;;;;;5047607;28;20690;-33
2022/10/20 03:24:05;;;;;;;12.50;8.80;;;14.50;99.90;;;;;;5047632;28;20211;-33
2022/10/20 03:26:32;;;;;;;10.10;8.97;;;14.50;99.90;;;;;;5047469;28;20277;-37
2022/10/20 03:28:59;;;;;;;13.33;9.60;;;14.50;99.90;;;;;;5047547;28;20236;-33
2022/10/20 03:31:27;;;;;;;12.30;9.03;;;14.50;99.90;;;;;;5047794;28;20205;-33
2022/10/20 03:33:54;;;;;;;14.10;8.23;;;14.50;99.90;;;;;;5030025;28;20210;-32
2022/10/20 03:36:23;;;;;;;11.90;9.13;;;14.50;99.90;;;;;;5050677;28;20207;-33
2022/10/20 03:38:51;;;;;;;13.03;8.83;;;14.50;99.90;;;;;;5051311;28;20236;-33
2022/10/20 03:41:20;;;;;;;11.30;9.10;;;14.50;99.90;;;;;;5051375;28;20676;-32
2022/10/20 03:43:47;;;;;;;13.87;8.70;;;14.50;99.90;;;;;;5051499;28;20204;-33
2022/10/20 03:46:17;;;;;;;11.80;8.80;;;14.60;99.90;;;;;;5051051;28;20215;-33
2022/10/20 03:48:44;;;;;;;12.00;8.73;;;14.50;99.90;;;;;;5050953;28;20242;-33
2022/10/20 03:51:12;;;;;;;10.40;8.80;;;14.60;99.90;;;;;;5049867;28;20654;-33
2022/10/20 03:53:44;;;;;;;11.33;9.47;;;14.60;99.90;;;;;;5050936;28;20272;-33
2022/10/20 03:56:16;;;;;;;11.23;9.07;;;14.60;99.90;;;;;;5050804;28;20191;-33
2022/10/20 03:58:44;;;;;;;10.73;8.97;;;14.60;99.90;;;;;;5050988;28;20206;-33
2022/10/20 04:01:16;;;;;;;10.93;8.70;;;14.60;99.90;;;;;;5050641;28;20205;-32
2022/10/20 04:03:44;;;;;;;11.03;8.67;;;14.60;99.90;;;;;;5050796;28;20193;-32
2022/10/20 04:06:12;;;;;;;12.30;9.77;;;14.60;99.90;;;;;;5050623;28;20200;-31
2022/10/20 04:08:39;;;;;;;10.33;8.90;;;14.60;99.90;;;;;;5050871;28;20203;-32
2022/10/20 04:11:06;;;;;;;12.90;8.87;;;14.60;99.90;;;;;;5050633;28;20765;-31
2022/10/20 04:13:34;;;;;;;10.87;9.20;;;14.60;99.90;;;;;;5050754;28;20217;-33
2022/10/20 04:16:01;;;;;;;12.20;8.97;;;14.60;99.90;;;;;;5050433;28;20199;-32
2022/10/20 04:18:28;;;;;;;10.73;8.77;;;14.60;99.90;;;;;;5050243;28;20331;-33
2022/10/20 04:20:55;;;;;;;13.20;9.17;;;14.60;99.90;;;;;;5050402;28;20217;-33
2022/10/20 04:23:23;;;;;;;10.87;9.17;;;14.60;99.90;;;;;;5050370;28;20204;-32
2022/10/20 04:25:50;;;;;;;11.87;8.77;;;14.50;99.90;;;;;;5050290;28;20253;-32
2022/10/20 04:28:19;;;;;;;12.63;9.70;;;14.50;99.90;;;;;;5050357;28;20222;-31
2022/10/20 04:30:49;;;;;;;11.60;9.90;;;14.50;99.90;;;;;;5050262;28;20192;-33
2022/10/20 04:33:16;;;;;;;12.00;10.23;;;14.40;99.90;;;;;;5049866;28;20698;-32
2022/10/20 04:35:44;;;;;;;13.13;9.83;;;14.40;99.90;;;;;;5049882;28;20704;-33
2022/10/20 04:38:11;;;;;;;12.50;9.70;;;14.40;99.90;;;;;;5049982;28;20514;-32
2022/10/20 04:40:38;;;;;;;13.60;10.07;;;14.40;99.90;;;;;;5050318;28;20188;-32
2022/10/20 04:43:05;;;;;;;13.43;9.80;;;14.40;99.90;;;;;;5048425;28;20639;-33
2022/10/20 04:45:35;;;;;;;12.90;10.00;;;14.40;99.90;;;;;;5050018;28;20227;-32
2022/10/20 04:48:04;;;;;;;12.20;9.70;;;14.30;99.90;;;;;;5048728;28;20202;-34
2022/10/20 04:50:31;;;;;;;12.73;9.53;;;14.30;99.90;;;;;;5049957;28;20204;-32
2022/10/20 04:52:58;;;;;;;10.13;9.10;;;14.30;99.90;;;;;;5049600;28;20660;-32
2022/10/20 04:55:26;;;;;;;11.67;9.53;;;14.30;99.90;;;;;;5049870;28;20758;-32
2022/10/20 04:57:53;;;;;;;12.30;9.90;;;14.30;99.90;;;;;;5049714;28;20226;-32
2022/10/20 05:00:20;;;;;;;11.10;9.30;;;14.20;99.90;;;;;;5048153;28;20200;-33
2022/10/20 05:02:50;;;;;;;12.53;9.73;;;14.20;99.90;;;;;;5048299;28;20311;-33
2022/10/20 05:05:17;;;;;;;11.83;9.40;;;14.20;99.90;;;;;;5048335;28;20203;-33
2022/10/20 05:07:44;;;;;;;11.33;9.20;;;14.20;99.90;;;;;;5049564;28;20270;-33
2022/10/20 05:10:11;;;;;;;13.70;9.50;;;14.20;99.90;;;;;;5049875;28;20566;-32
2022/10/20 05:12:41;;;;;;;16.83;9.67;;;14.20;99.90;;;;;;5049236;28;20216;-32
2022/10/20 05:15:08;;;;;;;13.40;9.93;;;14.10;99.90;;;;;;5049501;28;20192;-33
2022/10/20 05:17:38;;;;;;;10.20;9.10;;;14.10;99.90;;;;;;5049360;28;20236;-33
2022/10/20 05:20:08;;;;;;;15.40;9.73;;;14.10;99.90;;;;;;5047818;28;20222;-32
2022/10/20 05:22:35;;;;;;;14.37;10.10;;;14.10;99.90;;;;;;5049581;28;20226;-32
2022/10/20 05:25:04;;;;;;;13.40;9.70;;;14.10;99.90;;;;;;5049247;28;20204;-32
2022/10/20 05:27:53;;;;;;;13.60;9.70;;;14.10;99.90;;;;;;5049019;28;20208;-33
2022/10/20 05:30:20;;;;;;;14.40;10.40;;;14.10;99.90;;;;;;5047909;28;20316;-33
2022/10/20 05:32:48;;;;;;;14.43;10.27;;;14.10;99.90;;;;;;5048858;28;20226;-33
2022/10/20 05:35:15;;;;;;;12.80;10.83;;;14.10;99.90;;;;;;5049075;28;20200;-32
2022/10/20 05:37:42;;;;;;;16.20;10.50;;;14.10;99.90;;;;;;5048805;28;20207;-32
2022/10/20 05:40:10;;;;;;;14.40;10.30;;;14.10;99.90;;;;;;5048621;28;20234;-33
2022/10/20 05:42:38;;;;;;;15.80;10.70;;;14.10;99.90;;;;;;5048651;28;20205;-32
2022/10/20 05:45:06;;;;;;;14.67;10.30;;;14.10;99.90;;;;;;5048688;28;20204;-32
2022/10/20 05:47:33;;;;;;;14.17;10.43;;;14.10;99.90;;;;;;5049159;28;20659;-32
2022/10/20 05:50:01;;;;;;;12.40;10.73;;;14.20;99.90;;;;;;5048603;28;20200;-32
2022/10/20 05:52:28;;;;;;;12.83;9.93;;;14.20;99.90;;;;;;5048377;28;20501;-32
2022/10/20 05:54:55;;;;;;;13.97;10.13;;;14.20;99.90;;;;;;5048318;28;20206;-32
2022/10/20 05:57:22;;;;;;;15.13;10.80;;;14.10;99.90;;;;;;5048281;28;20251;-32
2022/10/20 05:59:50;;;;;;;13.33;10.30;;;14.20;99.90;;;;;;5048257;28;20655;-32
2022/10/20 06:02:17;;;;;;;14.93;11.17;;;14.20;99.90;;;;;;5048151;28;20291;-32
2022/10/20 06:04:45;;;;;;;13.03;10.23;;;14.20;99.90;;;;;;5048191;28;20700;-33
2022/10/20 06:07:12;;;;;;;13.80;10.97;;;14.20;99.90;;;;;;5048178;28;20198;-33
2022/10/20 06:09:39;;;;;;;13.43;11.00;;;14.20;99.90;;;;;;5048006;28;20291;-32
2022/10/20 06:12:07;;;;;;;15.37;11.10;;;14.30;99.90;;;;;;5048563;28;20200;-32
2022/10/20 06:14:41;;;;;;;17.40;10.43;;;14.30;99.90;;;;;;5048065;28;20596;-32
2022/10/20 06:17:11;;;;;;;12.77;10.10;;;14.30;99.90;;;;;;5048044;28;20203;-32
2022/10/20 06:19:38;;;;;;;12.90;10.20;;;14.30;99.90;;;;;;5047942;28;20240;-32
2022/10/20 06:22:05;;;;;;;16.33;10.27;;;14.40;99.90;;;;;;5063021;28;20224;-32
2022/10/20 06:24:33;;;;;;;13.20;10.13;;;14.40;99.90;;;;;;5047994;28;20196;-32
2022/10/20 06:27:00;;;;;;;11.77;9.63;;;14.40;99.90;;;;;;5048009;28;20200;-32
2022/10/20 06:29:30;;;;;;;18.27;10.37;;;14.40;99.90;;;;;;5046577;28;20192;-32
2022/10/20 06:31:59;;;;;;;19.50;11.30;;;14.50;99.90;;;;;;5062823;28;20212;-32
2022/10/20 06:34:26;;;;;;;13.63;10.33;;;14.50;99.90;;;;;;5047962;28;20725;-32
2022/10/20 06:36:53;;;;;;;21.57;11.03;;;14.60;99.90;;;;;;5046393;28;20204;-33
2022/10/20 06:39:23;;;;;;;25.53;12.13;;;14.60;99.90;;;;;;5047791;28;20307;-32
2022/10/20 06:41:53;;;;;;;19.47;11.00;;;14.70;99.90;;;;;;5048236;28;20212;-32
2022/10/20 06:44:22;;;;;;;20.23;11.20;;;14.70;99.90;;;;;;5046515;28;20601;-32
2022/10/20 06:46:53;;;;;;;14.27;10.70;;;14.70;99.90;;;;;;5047967;28;20613;-32
2022/10/20 06:49:21;;;;;;;17.43;9.77;;;14.80;99.90;;;;;;5047752;28;20242;-32
2022/10/20 06:51:49;;;;;;;14.73;9.87;;;14.80;99.90;;;;;;5047676;28;20200;-32
2022/10/20 06:54:16;;;;;;;12.13;9.90;;;14.80;99.90;;;;;;5047607;28;20228;-31
2022/10/20 06:56:44;;;;;;;14.13;10.43;;;14.90;99.90;;;;;;5047453;28;20630;-31
2022/10/20 06:59:13;;;;;;;14.13;11.07;;;14.90;99.90;;;;;;5047121;28;20308;-31
2022/10/20 07:01:41;;;;;;;21.20;11.17;;;14.90;99.90;;;;;;5047778;28;20565;-31
2022/10/20 07:04:14;;;;;;;11.53;10.33;;;14.90;99.90;;;;;;5048100;28;20208;-32
2022/10/20 07:06:44;;;;;;;13.67;10.37;;;15.00;99.90;;;;;;5046368;28;20204;-31
2022/10/20 07:09:17;;;;;;;14.33;10.70;;;15.00;99.90;;;;;;5047374;28;20258;-32
2022/10/20 07:11:44;;;;;;;13.20;10.33;;;15.00;99.90;;;;;;5066572;28;20192;-32
2022/10/20 07:14:13;;;;;;;12.43;10.17;;;15.00;99.90;;;;;;5051746;28;20748;-32
2022/10/20 07:16:42;;;;;;;11.83;10.10;;;15.00;99.90;;;;;;5051580;28;20212;-31
2022/10/20 07:19:09;;;;;;;13.30;10.27;;;15.10;99.90;;;;;;5051374;28;20271;-30
2022/10/20 07:21:37;;;;;;;12.40;9.50;;;15.10;99.90;;;;;;5051116;28;20197;-32
2022/10/20 07:24:11;;;;;;;11.47;10.20;;;15.10;99.90;;;;;;5051804;28;20189;-31
2022/10/20 07:26:40;;;;;;;16.97;10.00;;;15.10;99.90;;;;;;5051174;28;20216;-31
2022/10/20 07:29:09;;;;;;;15.07;10.67;;;15.10;99.90;;;;;;5050907;28;20497;-30
2022/10/20 07:31:47;;;;;;;17.50;10.93;;;15.20;99.90;;;;;;5051202;28;20303;-31
2022/10/20 07:34:16;;;;;;;14.33;10.10;;;15.20;99.90;;;;;;5049961;28;20247;-33
2022/10/20 07:36:58;;;;;;;13.67;9.37;;;15.30;99.90;;;;;;5051223;28;20200;-32
2022/10/20 07:39:26;;;;;;;12.43;9.37;;;15.20;99.90;;;;;;5051711;28;20207;-32
2022/10/20 07:41:53;;;;;;;13.10;9.20;;;15.20;99.90;;;;;;5050967;28;20299;-32
2022/10/20 07:44:21;;;;;;;10.20;8.70;;;15.30;99.90;;;;;;5050919;28;20270;-30
2022/10/20 07:46:48;;;;;;;11.50;8.93;;;15.40;99.90;;;;;;5050580;28;20212;-31
2022/10/20 07:49:16;;;;;;;14.23;9.00;;;15.40;99.90;;;;;;5050580;28;20212;-32
2022/10/20 07:52:04;;;;;;;10.80;8.63;;;15.40;99.90;;;;;;5051140;28;20212;-32
2022/10/20 07:54:31;;;;;;;12.50;9.17;;;15.50;99.90;;;;;;5050993;28;20635;-32
2022/10/20 07:56:58;;;;;;;13.63;8.57;;;15.50;99.90;;;;;;5049341;28;20196;-32
2022/10/20 07:59:25;;;;;;;11.57;8.43;;;15.50;99.90;;;;;;5050532;28;20192;-32
2022/10/20 08:01:53;;;;;;;10.77;8.90;;;15.60;99.90;;;;;;5050660;28;20752;-31
2022/10/20 08:04:26;;;;;;;10.60;8.70;;;15.60;99.90;;;;;;5049288;28;20291;-30
2022/10/20 08:06:54;;;;;;;11.90;8.83;;;15.70;99.90;;;;;;5050487;28;20219;-32
2022/10/20 08:09:21;;;;;;;13.20;8.37;;;15.70;99.90;;;;;;5050422;28;20220;-30
2022/10/20 08:11:49;;;;;;;13.20;9.17;;;15.80;99.90;;;;;;5065303;28;20204;-32
2022/10/20 08:14:25;;;;;;;10.67;7.90;;;15.80;99.90;;;;;;5050346;28;20274;-31
2022/10/20 08:16:56;;;;;;;12.73;8.33;;;15.90;99.90;;;;;;5050349;28;20742;-32
2022/10/20 08:19:25;;;;;;;13.23;8.80;;;15.90;99.90;;;;;;5049928;28;20239;-32
2022/10/20 08:22:09;;;;;;;12.53;9.00;;;16.00;99.90;;;;;;5048862;28;20749;-31
2022/10/20 08:24:41;;;;;;;9.80;8.07;;;16.00;99.90;;;;;;5050190;28;20206;-31
2022/10/20 08:27:08;;;;;;;12.80;8.67;;;16.10;99.90;;;;;;5049956;28;20285;-32
2022/10/20 08:29:36;;;;;;;13.80;8.73;;;16.10;99.90;;;;;;5050364;28;20689;-31
2022/10/20 08:32:04;;;;;;;11.57;8.17;;;16.20;99.90;;;;;;5050196;28;20607;-32
2022/10/20 08:34:31;;;;;;;12.97;8.53;;;16.20;99.90;;;;;;5048638;28;20649;-31
2022/10/20 08:36:59;;;;;;;9.77;7.83;;;16.30;99.90;;;;;;5049908;28;20869;-32
2022/10/20 08:39:26;;;;;;;11.10;8.10;;;16.30;99.90;;;;;;5049858;28;20200;-31
2022/10/20 08:41:54;;;;;;;11.67;8.27;;;16.30;99.90;;;;;;5050133;28;20234;-31
2022/10/20 08:44:37;;;;;;;15.30;8.17;;;16.40;99.90;;;;;;5048816;28;20624;-30
2022/10/20 08:47:15;;;;;;;12.00;8.70;;;16.40;99.90;;;;;;5050188;28;20205;-32
2022/10/20 08:49:44;;;;;;;14.33;8.77;;;16.40;99.90;;;;;;5065137;28;20206;-31
2022/10/20 08:52:14;;;;;;;16.63;9.17;;;16.40;99.90;;;;;;5049766;28;20239;-32
2022/10/20 08:54:47;;;;;;;16.87;8.77;;;16.50;99.90;;;;;;5049649;28;20229;-32
2022/10/20 08:57:22;;;;;;;14.00;8.80;;;16.50;99.90;;;;;;5049677;28;20188;-31
2022/10/20 08:59:55;;;;;;;11.70;8.37;;;16.50;99.90;;;;;;5064521;28;20184;-31
2022/10/20 09:02:22;;;;;;;12.33;7.97;;;16.50;99.90;;;;;;5049514;28;20200;-32
2022/10/20 09:04:57;;;;;;;13.97;8.87;;;16.60;99.90;;;;;;5049941;28;20230;-31
2022/10/20 09:07:32;;;;;;;13.13;9.47;;;16.60;99.90;;;;;;5049247;28;20192;-32
2022/10/20 09:10:23;;;;;;;15.10;9.33;;;16.60;99.90;;;;;;5064147;28;20195;-31
2022/10/20 09:13:31;;;;;;;10.73;8.33;;;16.60;99.90;;;;;;5048790;28;20227;-32
2022/10/20 09:16:29;;;;;;;12.30;8.43;;;16.70;99.90;;;;;;5049327;28;20277;-32
2022/10/20 09:19:28;;;;;;;14.77;7.90;;;16.70;99.90;;;;;;5060545;28;20632;-32
2022/10/20 09:22:05;;;;;;;13.33;8.37;;;16.70;99.90;;;;;;5049158;28;20200;-32
2022/10/20 09:24:35;;;;;;;11.23;7.80;;;16.80;99.90;;;;;;5049421;28;20306;-32
2022/10/20 09:27:38;;;;;;;14.17;7.87;;;16.80;99.90;;;;;;5047868;28;20639;-34
2022/10/20 09:30:17;;;;;;;16.27;7.73;;;16.80;99.90;;;;;;5046996;28;20208;-34
2022/10/20 09:32:45;;;;;;;12.13;8.17;;;16.80;99.90;;;;;;5047292;28;20212;-34
2022/10/20 09:35:16;;;;;;;12.27;7.60;;;16.90;99.90;;;;;;5048884;28;20266;-32
2022/10/20 09:37:53;;;;;;;10.67;8.23;;;16.90;99.90;;;;;;5048823;28;20222;-32
2022/10/20 09:40:22;;;;;;;8.33;7.33;;;16.90;99.90;;;;;;5048620;28;20192;-31
2022/10/20 09:42:55;;;;;;;11.90;8.03;;;17.00;99.90;;;;;;5048489;28;20227;-32
2022/10/20 09:45:27;;;;;;;14.53;7.90;;;17.00;99.90;;;;;;5063746;28;20564;-32
2022/10/20 09:48:01;;;;;;;8.90;7.70;;;17.00;99.90;;;;;;5048979;28;20215;-31
2022/10/20 09:50:38;;;;;;;12.57;8.00;;;17.10;99.90;;;;;;5063653;28;20678;-31
2022/10/20 09:53:17;;;;;;;11.13;7.20;;;17.20;99.90;;;;;;5048457;28;20346;-32
2022/10/20 09:55:48;;;;;;;11.93;8.00;;;17.20;99.90;;;;;;5048449;28;20956;-33
2022/10/20 09:58:22;;;;;;;12.50;7.97;;;17.20;99.90;;;;;;5047179;28;20679;-34
2022/10/20 10:01:11;;;;;;;12.07;7.40;;;17.30;99.90;;;;;;5047943;28;20197;-34
2022/10/20 10:03:44;;;;;;;10.93;8.17;;;17.30;99.90;;;;;;5048210;28;20192;-33
2022/10/20 10:06:43;;;;;;;10.93;7.28;;;17.30;99.90;;;;;;5047012;28;20180;-34
2022/10/20 10:09:36;;;;;;;12.67;8.10;;;17.40;99.90;;;;;;5047771;28;20203;-34
2022/10/20 10:12:18;;;;;;;10.33;7.90;;;17.40;99.90;;;;;;5047920;28;20223;-33
2022/10/20 10:14:59;;;;;;;13.63;8.30;;;17.50;99.90;;;;;;5048192;28;20223;-33
2022/10/20 10:17:35;;;;;;;10.50;7.80;;;17.50;99.90;;;;;;5048107;28;20696;-33
2022/10/20 10:20:35;;;;;;;11.00;8.13;;;17.50;99.90;;;;;;5048229;28;20618;-32
2022/10/20 10:23:21;;;;;;;10.30;6.97;;;17.60;99.90;;;;;;5063590;28;20714;-34
2022/10/20 10:25:50;;;;;;;10.95;7.43;;;17.70;99.90;;;;;;5047386;28;20203;-34
2022/10/20 10:28:29;;;;;;;12.90;7.77;;;17.70;99.90;;;;;;5048762;28;20215;-33
2022/10/20 10:31:26;;;;;;;10.45;7.63;;;17.80;99.90;;;;;;5048274;28;20608;-34
2022/10/20 10:34:11;;;;;;;9.47;6.80;;;17.90;99.90;;;;;;5048393;28;20628;-34
2022/10/20 10:36:39;;;;;;;10.67;7.00;;;17.90;99.90;;;;;;5048216;28;20284;-32
2022/10/20 10:39:12;;;;;;;8.85;7.28;;;18.00;99.90;;;;;;5048210;28;20192;-34
2022/10/20 10:42:01;;;;;;;14.87;8.10;;;18.10;99.90;;;;;;5048273;28;20298;-33
2022/10/20 10:44:36;;;;;;;9.05;7.07;;;18.20;99.90;;;;;;5047240;28;20189;-33
2022/10/20 10:47:15;;;;;;;11.80;7.27;;;18.20;99.90;;;;;;5048368;28;20196;-34
2022/10/20 10:50:02;;;;;;;11.70;7.68;;;18.30;99.90;;;;;;5048067;28;20628;-32
2022/10/20 10:53:13;;;;;;;11.82;7.43;;;18.40;99.90;;;;;;5048449;28;20223;-33
2022/10/20 10:55:46;;;;;;;8.10;6.85;;;18.50;99.90;;;;;;5046857;28;20286;-34
2022/10/20 10:58:36;;;;;;;9.63;6.53;;;18.50;99.90;;;;;;5047882;28;20245;-34
2022/10/20 11:01:13;;;;;;;9.90;7.38;;;18.60;99.90;;;;;;5048003;28;20185;-34
2022/10/20 11:04:18;;;;;;;8.13;6.72;;;18.70;99.90;;;;;;5047536;28;20566;-33
2022/10/20 11:07:02;;;;;;;10.27;6.32;;;18.80;99.90;;;;;;5047535;28;20214;-33
2022/10/20 11:09:43;;;;;;;7.18;6.00;;;18.90;99.90;;;;;;5047938;28;20226;-33
2022/10/20 11:12:41;;;;;;;10.17;6.20;;;19.00;99.90;;;;;;5048482;28;20200;-33
2022/10/20 11:15:23;;;;;;;8.85;6.38;;;19.10;99.90;;;;;;5048071;28;20748;-33
2022/10/20 11:18:29;;;;;;;10.60;6.03;;;19.20;99.90;;;;;;5047700;28;20655;-33
2022/10/20 11:21:30;;;;;;;11.73;6.78;;;19.30;99.90;;;;;;5045273;28;20196;-33
2022/10/20 11:24:39;;;;;;;10.68;6.30;;;19.30;99.90;;;;;;5047575;28;20223;-33
2022/10/20 11:27:12;;;;;;;9.35;6.00;;;19.40;99.90;;;;;;5047587;28;20588;-33
2022/10/20 11:29:48;;;;;;;8.88;6.15;;;19.50;99.90;;;;;;5048076;28;20211;-33
2022/10/20 11:32:25;;;;;;;7.72;6.03;;;19.50;99.90;;;;;;5048180;28;20572;-33
2022/10/20 11:35:19;;;;;;;10.98;5.65;;;19.60;99.90;;;;;;5047496;28;20240;-34
2022/10/20 11:37:49;;;;;;;7.63;5.72;;;19.60;99.90;;;;;;5046936;28;20546;-33
2022/10/20 11:40:22;;;;;;;9.30;5.85;;;19.60;99.90;;;;;;5047871;28;20616;-33
2022/10/20 11:43:12;;;;;;;9.50;6.05;;;19.70;99.90;;;;;;5048306;28;20191;-33
2022/10/20 11:46:19;;;;;;;7.72;5.70;;;19.80;99.90;;;;;;5047385;28;20187;-33
2022/10/20 11:48:55;;;;;;;12.73;6.47;;;19.90;99.90;;;;;;5047498;28;20227;-33
2022/10/20 11:51:29;;;;;;;9.85;5.90;;;20.00;99.90;;;;;;5047665;28;20258;-33
2022/10/20 11:54:24;;;;;;;6.85;5.65;;;20.00;99.90;;;;;;5047323;28;20643;-33
2022/10/20 11:57:16;;;;;;;7.68;5.10;;;20.20;99.90;;;;;;5049407;28;20799;-38
2022/10/20 11:59:46;;;;;;;9.52;5.30;;;20.20;99.90;;;;;;5051336;28;20193;-33
2022/10/20 12:02:20;;;;;;;9.43;5.22;;;20.30;99.90;;;;;;5050913;28;20234;-33
2022/10/20 12:05:11;;;;;;;9.68;5.65;;;20.40;99.90;;;;;;5051355;28;20204;-33
2022/10/20 12:08:05;;;;;;;8.88;5.10;;;20.40;99.90;;;;;;5050340;28;20890;-33
2022/10/20 12:11:04;;;;;;;8.35;4.88;;;20.50;99.90;;;;;;5050973;28;20204;-33
2022/10/20 12:13:53;;;;;;;7.20;4.88;;;20.50;99.90;;;;;;5050775;28;20207;-33
2022/10/20 12:16:54;;;;;;;6.30;4.22;;;20.60;99.90;;;;;;5050560;28;20571;-33
2022/10/20 12:19:21;;;;;;;7.63;4.47;;;20.70;99.90;;;;;;5050477;28;20246;-33
2022/10/20 12:22:03;;;;;;;6.28;4.38;;;20.70;99.90;;;;;;5050622;28;20640;-33
2022/10/20 12:24:37;;;;;;;8.13;4.70;;;20.80;99.90;;;;;;5050449;28;20200;-33
2022/10/20 12:27:07;;;;;;;8.35;4.50;;;20.90;99.90;;;;;;5050783;28;20242;-33
2022/10/20 12:29:36;;;;;;;8.55;4.20;;;20.90;99.90;;;;;;5050156;28;20284;-33
2022/10/20 12:32:24;;;;;;;7.18;4.15;;;21.00;99.90;;;;;;5050432;28;20212;-33
2022/10/20 12:34:57;;;;;;;8.90;3.97;;;21.00;99.90;;;;;;5050267;28;20707;-33
2022/10/20 12:37:32;;;;;;;9.57;4.00;;;21.10;99.90;;;;;;5050336;28;20200;-33
2022/10/20 12:40:05;;;;;;;5.78;3.55;;;21.10;99.90;;;;;;5050367;28;20271;-33
2022/10/20 12:42:46;;;;;;;7.82;4.03;;;21.10;99.90;;;;;;5051282;28;20504;-33
2022/10/20 12:45:19;;;;;;;6.55;3.10;;;21.20;99.90;;;;;;5051169;28;20185;-32
2022/10/20 12:47:54;;;;;;;8.00;3.97;;;21.20;99.90;;;;;;5050250;28;20205;-33
2022/10/20 12:50:35;;;;;;;6.85;3.67;;;21.20;99.90;;;;;;5065191;28;20200;-33
2022/10/20 12:53:29;;;;;;;4.68;3.38;;;21.30;99.90;;;;;;5050452;28;20196;-33
2022/10/20 12:56:01;;;;;;;6.00;3.10;;;21.30;99.90;;;;;;5049958;28;20234;-34
2022/10/20 12:58:32;;;;;;;7.15;3.92;;;21.30;99.90;;;;;;5050108;28;20774;-33
2022/10/20 13:01:04;;;;;;;5.40;3.35;;;21.30;99.90;;;;;;5064833;28;20196;-33
2022/10/20 13:03:57;;;;;;;4.32;2.97;;;21.30;99.90;;;;;;5048310;28;20572;-33
2022/10/20 13:06:29;;;;;;;6.85;3.15;;;21.30;99.90;;;;;;5049810;28;20215;-33
2022/10/20 13:09:02;;;;;;;6.93;3.13;;;21.30;99.90;;;;;;5049009;28;20204;-32
2022/10/20 13:11:42;;;;;;;5.50;3.30;;;21.30;99.90;;;;;;5049825;28;20239;-33